首页
METAR-TAF:

METAR-TAF

机场 :

日内瓦国际机场

日内瓦, 瑞士

纬度: 46-15N, 经度: 006-08E, 海拔: 420米

当前天气观测

该预报发布于21分钟前的21:20 UTC
风速5节,风向西转西南
温度 22°C
湿度 57%
气压 1014 hPa
能见度10公里或以上
1500米以下无云,无积雨云

METAR: LSGG 182120Z 25005KT CAVOK 22/13 Q1014 NOSIG

时间: 23:41 (21:41 UTC)

预报

该预报发布于1小时和16分钟前的20:25 UTC
预报有效从18日的 21点(UTC)到 20日的 03点(UTC)
风速3节,风向多变
能见度10公里或以上
1500米以下无云,无积雨云
成为
从 19日的 09点(UTC)到 19日的 11点(UTC)
能见度10公里或以上
少量云层高于4000英尺
成为
从 19日的 12点(UTC)到 19日的 14点(UTC)
风速10节,风向西南
短暂存在
从 19日的 21点(UTC)到 20日的 03点(UTC)
少量云层高于4000英尺, 积雨云.

TAF: LSGG 182025Z 1821/2003 VRB03KT CAVOK TX30/1915Z TN16/1904Z BECMG 1909/1911 9999 FEW040 BECMG 1912/1914 22010KT TEMPO 1921/2003 FEW040CB

超过4000个机场的气象观测和天气预报(METAR&TAF报告)。

可查询的气象台以黄色和红色小点在地图上表示。

将鼠标移到小点上方,可查看气象台名称。

然后点击查看天气观测和预报。

如需切换地图:点击带黑十字的绿色按钮放大地图;点击带横线的绿色按钮缩小地图;或者点击绿色箭头查看邻近地区的地图。


METAR-TAF: